Lily Bay Township, Maine
Current Conditions -  °F | °C
As of 12:53 PM on Saturday 20 Dec 2014 (Local Time) from KMLT Reporting Station
Overcast Overcast  
Wind Chill:   Ceiling: 1000
Heat Index: 19°   Visibility: 9mi
Dew Point: 15°   Wind: 8mph
Humidity: 85%   Direction: 350°N
Pressure: 30.35"   Gusts: NA
Location:  45.7313°N, 69.33°W
Report Text: KMLT 201753Z AUTO 35007KT 9SM OVC010 M07/M09 A3035 RMK AO2 SLP291 T10721094 11072 21150 58006
Loading
Personal Weather Stations






























Interactive Weather Map New forecast layout! Learn more

10-Day Weather Forecast

Advertisements
Track Severe Weather on mobile